Accueil
METAR-TAF:

METAR-TAF

Aéroports :

Aéroport international Roi-Abdelaziz

Djeddah, Arabie saoudite

latitude: 21-42N, longitude: 039-11E, altitude: 15 m

Observation

Le bulletin a été fait il y a 1 heure et 9 minutes, à 13:00 UTC
Vent 10 kt de ouest
Température 27°C
Humidité 54%
Pression 1011 hPa
Visibilité 10 km ou plus
Quelques nuages à une hauteur de 4000 ft

METAR: OEJN 291300Z 28010KT 9999 FEW040 27/17 Q1011 NOSIG

Heure: 17:09 (14:09 UTC)

Prévision

Le bulletin a été fait il y a 3 heures et 9 minutes, à 11:00 UTC
Prévision valable du 29 à 12 UTC au 01 à 18 UTC
Vent 6 kt de nord/nord-ouest avec des rafales jusqu'à 16 kt
Visibilité 10 km ou plus
Quelques nuages à une hauteur de 4000 ft
Nuages épars à une hauteur de 8000 ft
Evoluant progressivement
du 29 à 18 UTC au 29 à 20 UTC
Vent 6 kt de nord/nord-est

TAF: OEJN 291100Z 2912/0118 33006G16KT 9999 FEW040 SCT080 BECMG 2918/2920 03006KT

Observations et prévisions météorologiques de plus de 4000 aéroports (messages METAR et TAF).

Les stations disponibles sont représentées par des disques jaunes et rouges sur la carte.

Passer la souris dessus pour voir le nom de la station.

Cliquer dessus pour voir les observations et prévisions météorologiques.

Pour changer de carte: cliquez sur les boutons verts avec une croix noire pour zoomer, sur le bouton vert avec un tiret pour effectuer un zoom arrière, ou sur les flèches vertes pour les cartes adjacentes.


METAR-TAF: